createdAt,value
2022-09-07T00:01:23.137Z,47.17
2022-09-07T00:03:56.506Z,47.39
2022-09-07T00:06:25.375Z,47.69
2022-09-07T00:08:54.187Z,47.41
2022-09-07T00:11:23.012Z,47.50
2022-09-07T00:13:51.767Z,47.47
2022-09-07T00:16:25.015Z,47.56
2022-09-07T00:18:57.301Z,47.51
2022-09-07T00:21:27.091Z,47.28
2022-09-07T00:23:56.608Z,47.18
2022-09-07T00:26:29.166Z,46.79
2022-09-07T00:29:00.667Z,46.79
2022-09-07T00:31:31.511Z,47.13
2022-09-07T00:34:03.106Z,46.71
2022-09-07T00:36:31.768Z,46.50
2022-09-07T00:39:00.366Z,46.78
2022-09-07T00:41:29.381Z,46.59
2022-09-07T00:44:37.662Z,46.75
2022-09-07T00:47:19.723Z,47.19
2022-09-07T00:49:57.426Z,47.19
2022-09-07T00:52:29.617Z,47.13
2022-09-07T00:55:04.042Z,47.16
2022-09-07T00:57:34.337Z,47.41
2022-09-07T01:00:05.362Z,47.55
2022-09-07T01:02:34.235Z,47.37
2022-09-07T01:05:16.429Z,47.39
2022-09-07T01:07:46.290Z,47.41
2022-09-07T01:10:15.637Z,47.07
2022-09-07T01:12:44.351Z,47.64
2022-09-07T01:15:13.349Z,47.50
2022-09-07T01:17:47.911Z,47.60
2022-09-07T01:20:36.904Z,47.55
2022-09-07T01:24:22.998Z,47.69
2022-09-07T01:27:09.001Z,47.93
2022-09-07T01:30:09.515Z,48.03
2022-09-07T01:33:09.664Z,47.98
2022-09-07T01:35:48.434Z,48.21
2022-09-07T01:38:35.800Z,48.51
2022-09-07T01:41:45.199Z,48.78
2022-09-07T01:44:32.857Z,49.31
2022-09-07T01:47:42.611Z,49.72
2022-09-07T01:50:28.809Z,49.70
2022-09-07T01:53:15.738Z,49.71
2022-09-07T01:55:57.352Z,49.99
2022-09-07T01:58:25.932Z,50.31
2022-09-07T02:01:11.502Z,50.24
2022-09-07T02:03:53.316Z,50.85
2022-09-07T02:06:47.477Z,50.75
2022-09-07T02:09:37.502Z,50.83
2022-09-07T02:12:22.168Z,51.11
2022-09-07T02:14:59.973Z,50.86
2022-09-07T02:17:39.940Z,51.36
2022-09-07T02:20:32.338Z,51.83
2022-09-07T02:23:07.023Z,51.88
2022-09-07T02:25:46.301Z,51.60
2022-09-07T02:28:21.563Z,51.42
2022-09-07T02:30:50.476Z,51.26
2022-09-07T02:33:19.462Z,51.23
2022-09-07T02:35:48.708Z,51.44
2022-09-07T02:38:18.020Z,51.40
2022-09-07T02:41:00.149Z,51.52
2022-09-07T02:43:31.697Z,51.41
2022-09-07T02:46:33.623Z,51.73
2022-09-07T02:49:24.053Z,52.21
2022-09-07T02:52:20.017Z,51.83
2022-09-07T02:55:21.382Z,52.50
2022-09-07T02:59:00.991Z,52.78
2022-09-07T03:02:00.548Z,52.37
2022-09-07T03:04:48.501Z,52.58
2022-09-07T03:07:36.245Z,53.68
2022-09-07T03:10:09.766Z,53.51
2022-09-07T03:12:48.624Z,54.68
2022-09-07T03:15:22.359Z,55.89
2022-09-07T03:17:52.044Z,56.86
2022-09-07T03:20:24.302Z,57.18
2022-09-07T03:22:53.173Z,58.21
2022-09-07T03:25:23.247Z,58.20
2022-09-07T03:27:51.967Z,58.50
2022-09-07T03:30:21.089Z,58.29
2022-09-07T03:32:49.869Z,58.84
2022-09-07T03:35:19.050Z,59.65
2022-09-07T03:37:47.782Z,59.99
2022-09-07T03:40:17.185Z,60.01
2022-09-07T03:42:52.647Z,59.92
2022-09-07T03:45:21.344Z,60.12
2022-09-07T03:47:51.516Z,60.59
2022-09-07T03:50:20.221Z,60.19
2022-09-07T03:52:49.006Z,60.20
2022-09-07T03:55:17.860Z,59.96
2022-09-07T03:57:46.531Z,60.22
2022-09-07T04:00:15.375Z,59.39
2022-09-07T04:02:44.263Z,59.23
2022-09-07T04:05:13.312Z,58.80
2022-09-07T04:07:41.960Z,60.05
2022-09-07T04:10:11.006Z,60.13
2022-09-07T04:12:40.073Z,60.19
2022-09-07T04:15:09.509Z,60.13
2022-09-07T04:17:38.807Z,59.90
2022-09-07T04:20:08.982Z,60.11
2022-09-07T04:22:37.599Z,59.86
2022-09-07T04:25:06.509Z,58.86
2022-09-07T04:27:35.172Z,58.44
2022-09-07T04:30:04.084Z,57.85
2022-09-07T04:32:32.867Z,57.15
2022-09-07T04:35:01.569Z,56.00
2022-09-07T04:37:30.576Z,55.82
2022-09-07T04:39:59.350Z,55.34
2022-09-07T04:42:28.147Z,54.78
2022-09-07T04:44:57.353Z,54.42
2022-09-07T04:47:26.246Z,53.35
2022-09-07T04:49:55.000Z,53.10
2022-09-07T04:52:25.974Z,52.81
2022-09-07T04:54:54.658Z,52.27
2022-09-07T04:57:26.125Z,51.62
2022-09-07T04:59:55.307Z,51.85
2022-09-07T05:02:24.135Z,51.40
2022-09-07T05:04:53.083Z,50.97
2022-09-07T05:07:21.735Z,50.40
2022-09-07T05:09:50.483Z,50.52
2022-09-07T05:12:19.278Z,51.00
2022-09-07T05:14:47.911Z,51.05
2022-09-07T05:17:16.700Z,50.34
2022-09-07T05:19:45.593Z,49.97
2022-09-07T05:22:14.456Z,49.59
2022-09-07T05:24:43.086Z,49.64
2022-09-07T05:27:11.918Z,49.28
2022-09-07T05:32:29.508Z,49.42
2022-09-07T05:34:58.272Z,48.31
2022-09-07T05:37:26.923Z,48.01
2022-09-07T05:39:57.337Z,48.02
2022-09-07T05:42:26.361Z,47.98
2022-09-07T05:44:55.049Z,47.17
2022-09-07T05:47:24.719Z,47.24
2022-09-07T05:49:57.045Z,46.49
2022-09-07T05:52:26.144Z,46.06
2022-09-07T05:55:07.524Z,46.12
2022-09-07T05:57:44.383Z,46.24
2022-09-07T06:00:14.689Z,45.82
2022-09-07T06:02:43.579Z,46.20
2022-09-07T06:05:12.465Z,46.13
2022-09-07T06:07:41.306Z,46.14
2022-09-07T06:12:58.956Z,45.40
2022-09-07T06:15:27.661Z,44.72
2022-09-07T06:17:56.336Z,44.87
2022-09-07T06:20:25.031Z,44.50
2022-09-07T06:22:53.682Z,44.50
2022-09-07T06:25:22.393Z,44.36
2022-09-07T06:27:52.016Z,44.62
2022-09-07T06:30:21.811Z,44.61
2022-09-07T06:32:50.586Z,45.05
2022-09-07T06:35:19.286Z,44.97
2022-09-07T06:37:47.922Z,44.75
2022-09-07T06:40:16.964Z,44.65
2022-09-07T06:42:45.658Z,43.98
2022-09-07T06:45:17.322Z,43.49
2022-09-07T06:47:46.062Z,43.18
2022-09-07T06:50:16.055Z,43.07
2022-09-07T06:55:33.388Z,42.82
2022-09-07T06:58:02.105Z,42.33
2022-09-07T07:00:30.871Z,42.22
2022-09-07T07:02:59.607Z,42.66
2022-09-07T07:05:28.843Z,42.57
2022-09-07T07:07:58.334Z,42.33
2022-09-07T07:10:27.097Z,42.42
2022-09-07T07:12:58.766Z,42.63
2022-09-07T07:15:30.815Z,42.31
2022-09-07T07:18:13.415Z,42.79
2022-09-07T07:20:48.627Z,42.41
2022-09-07T07:23:17.407Z,42.62
2022-09-07T07:25:46.208Z,42.64
2022-09-07T07:31:10.428Z,43.02
2022-09-07T07:33:41.830Z,42.95
2022-09-07T07:36:24.336Z,42.91
2022-09-07T07:38:58.858Z,42.69
2022-09-07T07:44:21.134Z,42.50
2022-09-07T07:46:51.637Z,42.63
2022-09-07T07:49:20.526Z,43.45
2022-09-07T07:54:38.051Z,43.56
2022-09-07T07:57:06.745Z,44.01
2022-09-07T07:59:36.191Z,44.33
2022-09-07T08:02:07.370Z,44.36
2022-09-07T08:04:37.135Z,44.47
2022-09-07T08:07:10.489Z,43.96
2022-09-07T08:09:43.365Z,43.89
2022-09-07T08:12:19.198Z,44.01
2022-09-07T08:14:49.033Z,44.00
2022-09-07T08:17:18.069Z,43.77
2022-09-07T08:19:46.847Z,43.70
2022-09-07T08:22:15.780Z,43.86
2022-09-07T08:24:44.626Z,43.32
2022-09-07T08:27:13.789Z,43.24
2022-09-07T08:29:43.341Z,42.50
2022-09-07T08:32:12.108Z,42.95
2022-09-07T08:34:40.923Z,43.00
2022-09-07T08:37:09.842Z,42.77
2022-09-07T08:39:39.343Z,42.78
2022-09-07T08:42:08.231Z,42.49
2022-09-07T08:44:51.440Z,42.36
2022-09-07T08:47:41.748Z,42.94
2022-09-07T08:50:52.576Z,43.39
2022-09-07T08:53:25.325Z,43.44
2022-09-07T08:56:10.033Z,43.61
2022-09-07T08:58:53.581Z,43.49
2022-09-07T09:01:31.037Z,43.10
2022-09-07T09:04:18.181Z,43.12
2022-09-07T09:07:31.193Z,42.48
2022-09-07T09:10:35.000Z,42.36
2022-09-07T09:13:27.049Z,42.01
2022-09-07T09:16:43.473Z,42.58
2022-09-07T09:19:39.804Z,42.72
2022-09-07T09:22:25.929Z,42.37
2022-09-07T09:25:16.125Z,42.06
2022-09-07T09:27:44.937Z,41.11
2022-09-07T09:30:17.623Z,40.67
2022-09-07T09:32:48.050Z,40.58
2022-09-07T09:35:36.837Z,40.81
2022-09-07T09:38:06.178Z,40.63
2022-09-07T09:40:38.290Z,40.80
2022-09-07T09:43:20.177Z,40.19
2022-09-07T09:48:42.394Z,40.92
2022-09-07T09:54:20.394Z,40.48
2022-09-07T09:56:49.944Z,39.75
2022-09-07T10:05:30.845Z,39.19
2022-09-07T10:07:59.670Z,39.72
2022-09-07T10:10:29.845Z,39.08
2022-09-07T10:12:58.937Z,39.00
2022-09-07T10:15:40.387Z,38.98
2022-09-07T10:18:37.994Z,39.21
2022-09-07T10:21:30.673Z,39.88
2022-09-07T10:24:07.981Z,39.97
2022-09-07T10:26:39.531Z,39.75
2022-09-07T10:29:19.540Z,40.07
2022-09-07T10:32:16.299Z,39.15
2022-09-07T10:35:28.734Z,38.92
2022-09-07T10:38:28.904Z,39.08
2022-09-07T10:41:07.758Z,38.72
2022-09-07T10:43:37.275Z,38.86
2022-09-07T10:49:27.856Z,37.37
2022-09-07T10:52:33.330Z,37.69
2022-09-07T10:55:20.892Z,38.01
2022-09-07T10:59:01.504Z,37.92
2022-09-07T11:01:36.759Z,37.39
2022-09-07T11:04:44.947Z,36.70
2022-09-07T11:07:34.799Z,35.71
2022-09-07T11:10:43.395Z,36.03
2022-09-07T11:13:18.358Z,35.23
2022-09-07T11:15:58.950Z,34.82
2022-09-07T11:22:28.810Z,34.55
2022-09-07T11:28:21.544Z,37.15
2022-09-07T11:31:00.330Z,37.52
2022-09-07T11:34:23.793Z,37.78
2022-09-07T11:36:50.291Z,38.72
2022-09-07T11:39:41.149Z,37.76
2022-09-07T11:45:27.827Z,38.27
2022-09-07T11:48:21.807Z,38.50
2022-09-07T11:51:10.945Z,39.05
2022-09-07T11:53:48.725Z,38.48
2022-09-07T11:56:57.816Z,38.96
2022-09-07T11:59:43.019Z,39.44
2022-09-07T12:02:42.066Z,39.34
2022-09-07T12:05:25.407Z,39.28
2022-09-07T12:08:16.272Z,39.26
2022-09-07T12:11:08.023Z,37.86
2022-09-07T12:14:36.117Z,37.01
2022-09-07T12:17:46.128Z,36.05
2022-09-07T12:20:22.349Z,35.23
2022-09-07T12:23:21.272Z,33.85
2022-09-07T12:25:52.022Z,32.04
2022-09-07T12:28:23.611Z,31.12
2022-09-07T12:31:12.805Z,31.98
2022-09-07T12:33:41.618Z,30.33
2022-09-07T12:36:32.433Z,29.71
2022-09-07T12:39:29.159Z,31.42
2022-09-07T12:45:29.594Z,32.65
2022-09-07T12:48:10.717Z,32.98
2022-09-07T12:51:59.589Z,31.60
2022-09-07T12:54:38.205Z,34.79
2022-09-07T12:57:49.869Z,35.28
2022-09-07T13:00:33.328Z,35.70
2022-09-07T13:03:52.500Z,35.43
2022-09-07T13:07:02.526Z,35.50
2022-09-07T13:09:38.403Z,35.43
2022-09-07T13:15:52.257Z,35.50
2022-09-07T13:18:27.634Z,35.86
2022-09-07T13:21:09.538Z,37.50
2022-09-07T13:23:45.511Z,38.27
2022-09-07T13:27:08.765Z,37.87
2022-09-07T13:29:50.735Z,37.80
2022-09-07T13:35:25.775Z,39.70
2022-09-07T13:38:04.016Z,39.07
2022-09-07T13:40:42.252Z,39.55
2022-09-07T13:43:24.239Z,39.50
2022-09-07T13:45:56.152Z,39.83
2022-09-07T13:48:49.430Z,39.80
2022-09-07T13:51:49.716Z,39.51
2022-09-07T13:55:03.727Z,38.63
2022-09-07T13:58:01.918Z,39.03
2022-09-07T14:00:31.459Z,40.30
2022-09-07T14:03:07.695Z,39.88
2022-09-07T14:05:36.519Z,39.62
2022-09-07T14:08:05.418Z,38.90
2022-09-07T14:10:34.065Z,39.71
2022-09-07T14:13:11.703Z,39.44
2022-09-07T14:15:49.179Z,39.44
2022-09-07T14:18:31.831Z,38.21
2022-09-07T14:21:03.099Z,37.55
2022-09-07T14:23:35.845Z,37.13
2022-09-07T14:26:23.523Z,37.14
2022-09-07T14:28:57.091Z,37.07
2022-09-07T14:31:27.157Z,36.82
2022-09-07T14:33:59.564Z,36.68
2022-09-07T14:36:45.817Z,35.85
2022-09-07T14:39:18.873Z,34.74
2022-09-07T14:41:51.349Z,34.33
2022-09-07T14:44:43.324Z,34.40
2022-09-07T14:47:29.656Z,33.50
2022-09-07T14:50:06.472Z,32.37
2022-09-07T14:53:33.518Z,33.42
2022-09-07T14:55:44.793Z,33.66
2022-09-07T14:58:16.669Z,33.12
2022-09-07T15:01:37.094Z,33.05
2022-09-07T15:03:41.579Z,33.03
2022-09-07T15:07:01.016Z,33.81
2022-09-07T15:09:01.565Z,33.22
2022-09-07T15:11:36.736Z,32.72
2022-09-07T15:14:08.951Z,33.88
2022-09-07T15:16:45.106Z,33.08
2022-09-07T15:19:16.814Z,32.59
2022-09-07T15:21:46.350Z,33.38
2022-09-07T15:24:16.418Z,34.43
2022-09-07T15:27:05.226Z,33.22
2022-09-07T15:29:34.023Z,32.89
2022-09-07T15:32:05.173Z,33.18
2022-09-07T15:34:36.613Z,33.85
2022-09-07T15:38:01.095Z,34.29
2022-09-07T15:39:54.217Z,35.33
2022-09-07T15:45:12.451Z,36.39
2022-09-07T15:47:47.040Z,36.13
2022-09-07T15:50:19.615Z,35.38
2022-09-07T15:52:48.389Z,35.17
2022-09-07T15:55:19.731Z,35.79
2022-09-07T15:57:51.257Z,35.99
2022-09-07T16:00:21.766Z,36.01
2022-09-07T16:03:07.389Z,36.74
2022-09-07T16:05:44.400Z,36.09
2022-09-07T16:11:23.982Z,39.12
2022-09-07T16:14:01.831Z,40.48
2022-09-07T16:19:21.585Z,41.67
2022-09-07T16:21:50.234Z,43.04
2022-09-07T16:24:19.262Z,44.04
2022-09-07T16:26:47.901Z,44.12
2022-09-07T16:29:17.654Z,44.14
2022-09-07T16:34:35.542Z,46.19
2022-09-07T16:37:04.447Z,47.65
2022-09-07T16:39:34.147Z,48.24
2022-09-07T16:42:03.463Z,48.72
2022-09-07T16:44:34.638Z,49.48
2022-09-07T16:47:04.591Z,50.04
2022-09-07T16:49:33.255Z,51.01
2022-09-07T16:52:24.089Z,51.58
2022-09-07T16:54:59.659Z,52.59
2022-09-07T16:58:35.397Z,53.06
2022-09-07T17:00:17.875Z,54.41
2022-09-07T17:02:46.555Z,55.57
2022-09-07T17:05:15.734Z,56.61
2022-09-07T17:07:44.385Z,57.74
2022-09-07T17:10:13.228Z,58.71
2022-09-07T17:12:41.856Z,59.60
2022-09-07T17:15:11.127Z,60.21
2022-09-07T17:17:40.438Z,61.29
2022-09-07T17:20:09.937Z,62.21
2022-09-07T17:22:38.559Z,63.10
2022-09-07T17:25:08.915Z,63.28
2022-09-07T17:27:37.927Z,63.28
2022-09-07T17:30:07.866Z,62.84
2022-09-07T17:32:36.472Z,60.67
2022-09-07T17:35:14.441Z,62.52
2022-09-07T17:37:48.132Z,66.39
2022-09-07T17:40:17.166Z,67.67
2022-09-07T17:45:34.745Z,68.47
2022-09-07T17:48:03.554Z,68.53
2022-09-07T17:50:32.220Z,69.19
2022-09-07T17:53:00.855Z,69.30
2022-09-07T17:55:31.768Z,68.59
2022-09-07T17:58:04.782Z,69.70
2022-09-07T18:00:34.783Z,70.37
2022-09-07T18:03:03.792Z,67.71
2022-09-07T18:05:33.925Z,68.30
2022-09-07T18:08:02.912Z,70.67
2022-09-07T18:13:36.307Z,72.40
2022-09-07T18:16:43.720Z,72.56
2022-09-07T18:19:20.965Z,73.00
2022-09-07T18:21:51.926Z,72.45
2022-09-07T18:24:30.744Z,72.09
2022-09-07T18:26:59.427Z,71.38
2022-09-07T18:29:32.938Z,70.88
2022-09-07T18:32:08.702Z,73.84
2022-09-07T18:34:41.420Z,74.51
2022-09-07T18:37:22.535Z,74.99
2022-09-07T18:40:04.321Z,75.17
2022-09-07T18:42:35.114Z,75.29
2022-09-07T18:47:52.916Z,75.57
2022-09-07T18:50:23.578Z,76.02
2022-09-07T18:52:52.815Z,76.34
2022-09-07T18:55:22.044Z,76.23
2022-09-07T18:57:50.605Z,76.59
2022-09-07T19:00:22.361Z,76.83
2022-09-07T19:02:51.519Z,77.03
2022-09-07T19:08:08.904Z,77.33
2022-09-07T19:10:38.505Z,77.39
2022-09-07T19:13:07.234Z,78.08
2022-09-07T19:15:37.646Z,78.20
2022-09-07T19:18:08.505Z,78.28
2022-09-07T19:20:37.542Z,78.50
2022-09-07T19:23:06.823Z,78.09
2022-09-07T19:25:41.257Z,78.29
2022-09-07T19:28:09.819Z,77.76
2022-09-07T19:30:38.407Z,78.40
2022-09-07T19:33:10.260Z,78.08
2022-09-07T19:35:38.895Z,78.12
2022-09-07T19:38:07.565Z,77.84
2022-09-07T19:40:36.193Z,78.06
2022-09-07T19:43:05.337Z,77.75
2022-09-07T19:45:39.840Z,77.46
2022-09-07T19:48:08.441Z,77.37
2022-09-07T19:50:37.123Z,77.01
2022-09-07T19:53:06.304Z,76.01
2022-09-07T19:55:34.915Z,76.72
2022-09-07T19:58:03.517Z,76.85
2022-09-07T20:00:32.219Z,77.04
2022-09-07T20:03:01.043Z,76.58
2022-09-07T20:05:31.385Z,76.83
2022-09-07T20:08:00.061Z,75.80
2022-09-07T20:10:30.429Z,76.16
2022-09-07T20:12:59.199Z,76.66
2022-09-07T20:15:28.071Z,76.26
2022-09-07T20:17:56.767Z,75.82
2022-09-07T20:20:25.717Z,75.43
2022-09-07T20:22:54.572Z,75.31
2022-09-07T20:25:23.536Z,75.58
2022-09-07T20:27:52.340Z,76.23
2022-09-07T20:30:24.615Z,75.94
2022-09-07T20:32:53.610Z,76.06
2022-09-07T20:35:22.393Z,76.05
2022-09-07T20:37:51.107Z,75.80
2022-09-07T20:40:20.387Z,76.11
2022-09-07T20:42:49.096Z,76.01
2022-09-07T20:45:18.305Z,75.96
2022-09-07T20:47:47.027Z,75.84
2022-09-07T20:50:15.718Z,76.55
2022-09-07T20:52:44.329Z,77.00
2022-09-07T20:55:12.938Z,77.16
2022-09-07T20:57:41.627Z,77.16
2022-09-07T21:00:10.707Z,75.84
2022-09-07T21:02:39.471Z,78.54
2022-09-07T21:05:08.585Z,79.75
2022-09-07T21:07:41.210Z,80.51
2022-09-07T21:10:10.321Z,80.91
2022-09-07T21:12:39.159Z,81.21
2022-09-07T21:15:09.327Z,81.40
2022-09-07T21:17:39.054Z,81.62
2022-09-07T21:20:07.971Z,81.79
2022-09-07T21:22:36.550Z,81.96
2022-09-07T21:25:05.755Z,81.62
2022-09-07T21:27:38.803Z,81.15
2022-09-07T21:30:09.221Z,80.94
2022-09-07T21:32:38.044Z,80.09
2022-09-07T21:35:08.174Z,79.33
2022-09-07T21:37:39.522Z,81.61
2022-09-07T21:40:09.265Z,82.31
2022-09-07T21:42:38.902Z,82.26
2022-09-07T21:45:09.456Z,82.29
2022-09-07T21:47:40.872Z,82.00
2022-09-07T21:50:09.619Z,81.08
2022-09-07T21:52:39.126Z,81.90
2022-09-07T21:55:08.718Z,82.61
2022-09-07T21:57:37.337Z,82.62
2022-09-07T22:00:09.226Z,82.78
2022-09-07T22:02:37.911Z,82.80
2022-09-07T22:05:06.791Z,82.86
2022-09-07T22:07:35.413Z,83.41
2022-09-07T22:10:04.250Z,82.69
2022-09-07T22:12:32.831Z,81.74
2022-09-07T22:15:01.504Z,83.09
2022-09-07T22:17:30.198Z,83.25
2022-09-07T22:19:58.825Z,83.77
2022-09-07T22:22:27.793Z,83.46
2022-09-07T22:24:56.422Z,83.35
2022-09-07T22:27:25.103Z,83.64
2022-09-07T22:29:53.679Z,82.44
2022-09-07T22:32:23.011Z,82.78
2022-09-07T22:34:51.975Z,84.11
2022-09-07T22:37:20.610Z,84.12
2022-09-07T22:39:49.240Z,84.21
2022-09-07T22:42:17.962Z,84.24
2022-09-07T22:44:46.637Z,84.14
2022-09-07T22:47:15.902Z,84.13
2022-09-07T22:49:44.489Z,83.99
2022-09-07T22:52:13.180Z,84.00
2022-09-07T22:54:41.807Z,83.46
2022-09-07T22:57:10.558Z,83.45
2022-09-07T22:59:39.318Z,83.73
2022-09-07T23:02:08.010Z,83.98
2022-09-07T23:04:36.743Z,83.42
2022-09-07T23:07:07.882Z,84.47
2022-09-07T23:09:36.526Z,84.98
2022-09-07T23:12:05.291Z,85.20
2022-09-07T23:14:34.049Z,84.41
2022-09-07T23:17:02.740Z,83.65
2022-09-07T23:19:31.402Z,83.64
2022-09-07T23:22:01.021Z,84.33
2022-09-07T23:24:29.679Z,86.26
2022-09-07T23:26:58.308Z,86.69
2022-09-07T23:29:27.048Z,86.94
2022-09-07T23:31:55.833Z,87.06
2022-09-07T23:34:24.482Z,86.61
2022-09-07T23:36:53.131Z,87.22
2022-09-07T23:39:21.921Z,87.11
2022-09-07T23:41:50.800Z,87.63
2022-09-07T23:44:19.402Z,87.89
2022-09-07T23:46:48.136Z,88.00
2022-09-07T23:49:16.945Z,87.21
2022-09-07T23:51:45.625Z,88.35
2022-09-07T23:54:14.197Z,87.64
2022-09-07T23:56:42.883Z,88.18
2022-09-07T23:59:12.045Z,88.67
